Time;durP1;ratioP1;P1;durP2;ratioP2;P2;SDS_P1;SDS_P2;PMS_P1;PMS_P2;Temp;Humidity;BMP_temperature;BMP_pressure;BME280_temperature;BME280_humidity;BME280_pressure;Samples;Min_cycle;Max_cycle;Signal;HPM_P1;HPM_P2
2021/01/23 00:02:31;;;;;;;;;;;10.50;99.90;;;;;;5050735;28;19928;-68
2021/01/23 00:05:35;;;;;;;;;;;10.60;99.90;;;;;;5064830;28;19913;-68
2021/01/23 00:08:39;;;;;;;;;;;10.70;99.90;;;;;;5066140;28;19920;-69
2021/01/23 00:11:43;;;;;;;;;;;10.70;99.90;;;;;;5060105;28;19924;-69
2021/01/23 00:14:51;;;;;;;;;;;10.70;99.90;;;;;;5055758;28;19936;-68
2021/01/23 00:17:55;;;;;;;;;;;10.70;99.90;;;;;;5062665;28;19928;-70
2021/01/23 00:20:59;;;;;;;;;;;10.70;99.90;;;;;;5069283;28;19932;-69
2021/01/23 00:24:03;;;;;;;;;;;10.60;99.90;;;;;;5064176;28;19923;-69
2021/01/23 00:27:07;;;;;;;;;;;10.40;99.90;;;;;;5059168;28;19941;-69
2021/01/23 00:30:11;;;;;;;;;;;10.10;99.90;;;;;;5063892;28;19928;-68
2021/01/23 00:33:15;;;;;;;;;;;10.00;99.90;;;;;;5063514;28;19928;-70
2021/01/23 00:36:19;;;;;;;;;;;9.70;99.90;;;;;;5061936;28;19928;-69
2021/01/23 00:39:23;;;;;;;;;;;9.50;99.90;;;;;;5068673;28;19923;-69
2021/01/23 00:42:27;;;;;;;;;;;9.30;99.90;;;;;;5056762;28;19919;-69
2021/01/23 00:45:32;;;;;;;;;;;9.20;99.90;;;;;;5059218;28;20438;-69
2021/01/23 00:48:36;;;;;;;;;;;9.10;99.90;;;;;;5063602;28;19920;-69
2021/01/23 00:51:42;;;;;;;;;;;9.10;99.90;;;;;;5068846;28;19927;-69
2021/01/23 00:54:50;;;;;;;;;;;9.10;99.90;;;;;;5059896;28;20359;-70
2021/01/23 00:57:56;;;;;;;;;;;9.30;99.90;;;;;;5060837;28;19928;-69
2021/01/23 01:01:03;;;;;;;;;;;9.30;99.90;;;;;;5049989;28;19923;-69
2021/01/23 01:04:07;;;;;;;;;;;9.40;99.90;;;;;;5066875;28;19923;-69
2021/01/23 01:07:11;;;;;;;;;;;9.40;99.90;;;;;;5054860;28;19923;-69
2021/01/23 01:10:16;;;;;;;;;;;9.40;99.90;;;;;;5054390;28;19937;-69
2021/01/23 01:13:21;;;;;;;;;;;9.50;99.90;;;;;;5050121;28;19916;-69
2021/01/23 01:16:25;;;;;;;;;;;9.60;99.90;;;;;;5053822;28;19923;-69
2021/01/23 01:19:29;;;;;;;;;;;9.60;99.90;;;;;;5053779;28;19924;-68
2021/01/23 01:22:33;;;;;;;;;;;9.70;99.90;;;;;;5054470;28;19920;-70
2021/01/23 01:25:39;;;;;;;;;;;9.70;99.90;;;;;;5053332;28;19923;-70
2021/01/23 01:28:44;;;;;;;;;;;9.70;99.90;;;;;;5046977;28;20363;-70
2021/01/23 01:31:48;;;;;;;;;;;9.60;99.90;;;;;;5041373;28;20677;-70
2021/01/23 01:34:51;;;;;;;;;;;9.50;99.90;;;;;;5040652;28;19983;-70
2021/01/23 01:37:56;;;;;;;;;;;9.30;99.90;;;;;;5052900;28;19924;-70
2021/01/23 01:41:00;;;;;;;;;;;9.10;99.90;;;;;;5056545;28;19928;-70
2021/01/23 01:44:06;;;;;;;;;;;9.00;99.90;;;;;;5064298;28;19928;-70
2021/01/23 01:47:10;;;;;;;;;;;8.90;99.90;;;;;;5063957;28;19947;-70
2021/01/23 01:50:14;;;;;;;;;;;8.80;99.90;;;;;;5062218;28;20311;-71
2021/01/23 01:53:21;;;;;;;;;;;8.70;99.90;;;;;;5064107;28;19924;-69
2021/01/23 01:56:27;;;;;;;;;;;8.60;99.90;;;;;;5058827;28;19924;-71
2021/01/23 01:59:32;;;;;;;;;;;8.60;99.90;;;;;;5060136;28;19920;-70
2021/01/23 02:02:43;;;;;;;;;;;8.50;99.90;;;;;;5052906;28;19923;-70
2021/01/23 02:05:50;;;;;;;;;;;8.40;99.90;;;;;;5053025;28;20267;-70
2021/01/23 02:09:00;;;;;;;;;;;8.40;99.90;;;;;;5052179;28;19928;-72
2021/01/23 02:12:30;;;;;;;;;;;8.40;99.90;;;;;;5050081;28;20370;-70
2021/01/23 02:15:35;;;;;;;;;;;8.50;99.90;;;;;;5051356;28;19920;-70
2021/01/23 02:18:41;;;;;;;;;;;8.60;99.90;;;;;;5050857;28;19925;-70
2021/01/23 02:21:57;;;;;;;;;;;8.50;99.90;;;;;;5043245;28;19924;-72
2021/01/23 02:25:02;;;;;;;;;;;8.40;99.90;;;;;;5045258;28;19932;-72
2021/01/23 02:28:14;;;;;;;;;;;8.40;99.90;;;;;;5051598;28;19923;-70
2021/01/23 02:31:20;;;;;;;;;;;8.40;99.90;;;;;;5050355;28;19920;-70
2021/01/23 02:34:25;;;;;;;;;;;8.40;99.90;;;;;;5052410;28;20260;-71
2021/01/23 02:37:31;;;;;;;;;;;8.40;99.90;;;;;;5052331;28;19924;-69
2021/01/23 02:40:35;;;;;;;;;;;8.40;99.90;;;;;;5051514;28;19924;-70
2021/01/23 02:43:42;;;;;;;;;;;8.30;99.90;;;;;;5049048;28;19919;-71
2021/01/23 02:46:50;;;;;;;;;;;8.30;99.90;;;;;;5052066;28;19920;-70
2021/01/23 02:49:54;;;;;;;;;;;8.30;99.90;;;;;;5048536;28;19939;-70
2021/01/23 02:53:07;;;;;;;;;;;8.20;99.90;;;;;;5043184;28;20280;-71
2021/01/23 02:56:15;;;;;;;;;;;8.20;99.90;;;;;;5048996;28;19920;-68
2021/01/23 02:59:20;;;;;;;;;;;8.10;99.90;;;;;;5051200;28;19931;-70
2021/01/23 03:02:24;;;;;;;;;;;8.10;99.90;;;;;;5051741;28;19920;-69
2021/01/23 03:05:32;;;;;;;;;;;8.00;99.90;;;;;;5052011;28;19920;-70
2021/01/23 03:08:40;;;;;;;;;;;7.80;99.90;;;;;;5049131;28;19924;-71
2021/01/23 03:11:44;;;;;;;;;;;7.80;99.90;;;;;;5032946;28;19920;-70
2021/01/23 03:14:48;;;;;;;;;;;7.70;99.90;;;;;;5039102;28;19924;-72
2021/01/23 03:17:52;;;;;;;;;;;7.70;99.90;;;;;;5051413;28;19924;-70
2021/01/23 03:20:56;;;;;;;;;;;7.60;99.90;;;;;;5050825;28;19940;-70
2021/01/23 03:24:01;;;;;;;;;;;7.80;99.90;;;;;;5037775;28;20370;-70
2021/01/23 03:27:04;;;;;;;;;;;7.60;99.90;;;;;;5051634;28;19920;-71
2021/01/23 03:30:09;;;;;;;;;;;7.50;99.90;;;;;;5050628;28;19924;-70
2021/01/23 03:33:13;;;;;;;;;;;7.60;99.90;;;;;;5051856;28;20378;-71
2021/01/23 03:36:17;;;;;;;;;;;7.60;99.90;;;;;;5051534;28;20292;-69
2021/01/23 03:39:21;;;;;;;;;;;7.50;99.90;;;;;;5037609;28;19927;-69
2021/01/23 03:42:25;;;;;;;;;;;7.50;99.90;;;;;;5050874;28;19924;-70
2021/01/23 03:45:29;;;;;;;;;;;7.60;99.90;;;;;;5051175;28;19936;-70
2021/01/23 03:48:33;;;;;;;;;;;7.50;99.90;;;;;;5049933;28;19919;-70
2021/01/23 03:51:37;;;;;;;;;;;7.50;99.90;;;;;;5049410;28;19956;-70
2021/01/23 03:54:41;;;;;;;;;;;7.50;99.90;;;;;;5050624;28;19924;-70
2021/01/23 03:57:45;;;;;;;;;;;7.60;99.90;;;;;;5049993;28;20741;-70
2021/01/23 04:00:49;;;;;;;;;;;7.60;99.90;;;;;;5050266;28;19920;-69
2021/01/23 04:03:53;;;;;;;;;;;7.70;99.90;;;;;;5051040;28;20419;-69
2021/01/23 04:06:58;;;;;;;;;;;7.60;99.90;;;;;;5050856;28;19936;-70
2021/01/23 04:10:03;;;;;;;;;;;7.70;99.90;;;;;;5050461;28;19920;-70
2021/01/23 04:13:09;;;;;;;;;;;7.70;99.90;;;;;;5049921;28;20279;-69
2021/01/23 04:16:13;;;;;;;;;;;7.70;99.90;;;;;;5050594;28;19920;-70
2021/01/23 04:19:18;;;;;;;;;;;7.90;99.90;;;;;;5051117;28;20559;-70
2021/01/23 04:22:21;;;;;;;;;;;7.90;99.90;;;;;;5050830;28;19920;-69
2021/01/23 04:25:26;;;;;;;;;;;7.80;99.90;;;;;;5051096;28;19919;-68
2021/01/23 04:28:30;;;;;;;;;;;7.80;99.90;;;;;;5050001;28;19920;-69
2021/01/23 04:31:34;;;;;;;;;;;7.90;99.90;;;;;;5049887;28;19920;-68
2021/01/23 04:34:38;;;;;;;;;;;7.80;99.90;;;;;;5050782;28;19920;-70
2021/01/23 04:37:42;;;;;;;;;;;7.80;99.90;;;;;;5049738;28;19924;-69
2021/01/23 04:40:46;;;;;;;;;;;7.70;99.90;;;;;;5049952;28;19920;-69
2021/01/23 04:43:50;;;;;;;;;;;7.70;99.90;;;;;;5050024;28;19920;-70
2021/01/23 04:46:54;;;;;;;;;;;7.60;99.90;;;;;;5050891;28;19931;-70
2021/01/23 04:49:58;;;;;;;;;;;7.50;99.90;;;;;;5050517;28;19920;-69
2021/01/23 04:53:02;;;;;;;;;;;7.40;99.90;;;;;;5050580;28;20418;-70
2021/01/23 04:56:06;;;;;;;;;;;7.60;99.90;;;;;;5050859;28;19941;-69
2021/01/23 04:59:11;;;;;;;;;;;7.80;99.90;;;;;;5049594;28;19924;-70
2021/01/23 05:02:19;;;;;;;;;;;7.80;99.90;;;;;;5049287;28;19936;-69
2021/01/23 05:05:24;;;;;;;;;;;7.70;99.90;;;;;;5052231;28;20424;-70
2021/01/23 05:08:34;;;;;;;;;;;7.50;99.90;;;;;;5054086;28;19935;-69
2021/01/23 05:11:45;;;;;;;;;;;7.60;99.90;;;;;;5053800;28;20275;-69
2021/01/23 05:14:54;;;;;;;;;;;7.50;99.90;;;;;;5053934;28;20305;-70
2021/01/23 05:18:01;;;;;;;;;;;7.50;99.90;;;;;;5053886;28;19923;-69
2021/01/23 05:21:09;;;;;;;;;;;7.50;99.90;;;;;;5053495;28;19923;-69
2021/01/23 05:24:13;;;;;;;;;;;7.50;99.90;;;;;;5053591;28;19924;-69
2021/01/23 05:27:18;;;;;;;;;;;7.50;99.90;;;;;;5053754;28;19920;-69
2021/01/23 05:30:22;;;;;;;;;;;7.50;99.90;;;;;;5052622;28;19939;-70
2021/01/23 05:33:26;;;;;;;;;;;7.50;99.90;;;;;;5053413;28;19936;-68
2021/01/23 05:36:39;;;;;;;;;;;7.50;99.90;;;;;;5053592;28;19924;-70
2021/01/23 05:39:47;;;;;;;;;;;7.40;99.90;;;;;;5052949;28;19924;-70
2021/01/23 05:42:51;;;;;;;;;;;7.50;99.90;;;;;;5052332;28;19920;-69
2021/01/23 05:45:55;;;;;;;;;;;7.60;99.90;;;;;;5053779;28;19920;-70
2021/01/23 05:48:59;;;;;;;;;;;7.60;99.90;;;;;;5053403;28;19924;-69
2021/01/23 05:52:05;;;;;;;;;;;7.50;99.90;;;;;;5052081;28;19935;-69
2021/01/23 05:55:10;;;;;;;;;;;7.50;99.90;;;;;;5052491;28;19920;-69
2021/01/23 05:58:14;;;;;;;;;;;7.40;99.90;;;;;;5051858;28;19991;-69
2021/01/23 06:01:21;;;;;;;;;;;7.50;99.90;;;;;;5052153;28;19939;-69
2021/01/23 06:04:25;;;;;;;;;;;7.50;99.90;;;;;;5052942;28;19920;-69
2021/01/23 06:07:45;;;;;;;;;;;7.50;99.90;;;;;;5053144;28;19924;-70
2021/01/23 06:10:49;;;;;;;;;;;7.50;99.90;;;;;;5052341;28;20303;-70
2021/01/23 06:13:57;;;;;;;;;;;7.50;99.90;;;;;;5051992;28;19924;-70
2021/01/23 06:17:02;;;;;;;;;;;7.50;99.90;;;;;;5052576;28;20398;-70
2021/01/23 06:20:06;;;;;;;;;;;7.50;99.90;;;;;;5052367;28;19923;-71
2021/01/23 06:23:10;;;;;;;;;;;7.50;99.90;;;;;;5051981;28;19920;-70
2021/01/23 06:26:15;;;;;;;;;;;7.40;99.90;;;;;;5053008;28;20251;-70
2021/01/23 06:29:38;;;;;;;;;;;7.40;99.90;;;;;;5046403;28;20280;-69
2021/01/23 06:32:42;;;;;;;;;;;7.30;99.90;;;;;;5045803;28;20290;-68
2021/01/23 06:35:47;;;;;;;;;;;7.20;99.90;;;;;;5049745;28;20379;-69
2021/01/23 06:39:01;;;;;;;;;;;7.20;99.90;;;;;;5045522;28;19927;-70
2021/01/23 06:42:06;;;;;;;;;;;7.00;99.90;;;;;;5046741;28;19920;-69
2021/01/23 06:45:33;;;;;;;;;;;6.90;99.90;;;;;;5047123;28;19920;-70
2021/01/23 06:48:57;;;;;;;;;;;6.70;99.90;;;;;;5049903;28;19919;-70
2021/01/23 06:52:05;;;;;;;;;;;6.60;99.90;;;;;;5046764;28;20283;-69
2021/01/23 06:55:09;;;;;;;;;;;6.70;99.90;;;;;;5048444;28;19920;-70
2021/01/23 06:58:25;;;;;;;;;;;6.70;99.90;;;;;;5047076;28;19939;-68
2021/01/23 07:01:29;;;;;;;;;;;6.70;99.90;;;;;;5048210;28;20267;-71
2021/01/23 07:04:44;;;;;;;;;;;6.70;99.90;;;;;;5046454;28;19924;-69
2021/01/23 07:07:48;;;;;;;;;;;6.70;99.90;;;;;;5048395;28;19928;-69
2021/01/23 07:11:04;;;;;;;;;;;6.70;99.90;;;;;;5048462;28;19920;-69
2021/01/23 07:14:09;;;;;;;;;;;6.70;99.90;;;;;;5047529;28;19920;-68
2021/01/23 07:17:13;;;;;;;;;;;6.80;99.90;;;;;;5049889;28;19924;-69
2021/01/23 07:20:17;;;;;;;;;;;6.80;99.90;;;;;;5048321;28;20967;-70
2021/01/23 07:23:22;;;;;;;;;;;6.70;99.90;;;;;;5048831;28;19924;-70
2021/01/23 07:26:27;;;;;;;;;;;6.60;99.90;;;;;;5043825;28;19924;-69
2021/01/23 07:29:31;;;;;;;;;;;6.50;99.90;;;;;;5048852;28;19919;-69
2021/01/23 07:32:36;;;;;;;;;;;6.30;99.90;;;;;;5043561;28;19920;-69
2021/01/23 07:35:40;;;;;;;;;;;6.30;99.90;;;;;;5044169;28;20429;-69
2021/01/23 07:38:44;;;;;;;;;;;6.30;99.90;;;;;;5044493;28;19938;-69
2021/01/23 07:41:55;;;;;;;;;;;6.30;99.90;;;;;;5046668;28;19920;-68
2021/01/23 07:45:00;;;;;;;;;;;6.30;99.90;;;;;;5042982;28;19932;-70
2021/01/23 07:48:05;;;;;;;;;;;6.20;99.90;;;;;;5050332;28;19920;-69
2021/01/23 07:51:21;;;;;;;;;;;6.10;99.90;;;;;;5044256;28;20007;-69
2021/01/23 07:54:25;;;;;;;;;;;6.00;99.90;;;;;;5048588;28;19940;-69
2021/01/23 07:57:29;;;;;;;;;;;6.10;99.90;;;;;;5045359;28;19924;-70
2021/01/23 08:00:32;;;;;;;;;;;6.10;99.90;;;;;;5047195;28;19948;-69
2021/01/23 08:03:36;;;;;;;;;;;6.10;99.90;;;;;;5047300;28;19928;-70
2021/01/23 08:06:40;;;;;;;;;;;6.20;99.90;;;;;;5043105;28;19943;-69
2021/01/23 08:09:45;;;;;;;;;;;6.20;99.90;;;;;;5032779;28;21698;-69
2021/01/23 08:12:55;;;;;;;;;;;6.20;99.90;;;;;;5047725;28;19923;-69
2021/01/23 08:16:09;;;;;;;;;;;6.10;99.90;;;;;;5046679;28;19920;-70
2021/01/23 08:19:13;;;;;;;;;;;6.10;99.90;;;;;;5047105;28;19924;-69
2021/01/23 08:22:19;;;;;;;;;;;6.10;99.90;;;;;;5048134;28;19928;-70
2021/01/23 08:25:25;;;;;;;;;;;6.10;99.90;;;;;;5049292;28;19920;-70
2021/01/23 08:28:32;;;;;;;;;;;6.20;99.90;;;;;;5037341;28;19920;-69
2021/01/23 08:31:40;;;;;;;;;;;6.20;99.90;;;;;;5047976;28;19935;-69
2021/01/23 08:34:45;;;;;;;;;;;6.20;99.90;;;;;;5047682;28;19924;-70
2021/01/23 08:37:49;;;;;;;;;;;6.20;99.90;;;;;;5047832;28;19924;-69
2021/01/23 08:40:53;;;;;;;;;;;6.30;99.90;;;;;;5050844;28;19923;-70
2021/01/23 08:43:57;;;;;;;;;;;6.30;99.90;;;;;;5051877;28;19924;-69
2021/01/23 08:47:02;;;;;;;;;;;6.20;99.90;;;;;;5050840;28;19920;-70
2021/01/23 08:50:07;;;;;;;;;;;6.30;99.90;;;;;;5050553;28;19928;-69
2021/01/23 08:53:11;;;;;;;;;;;6.30;99.90;;;;;;5050873;28;19924;-70
2021/01/23 08:56:16;;;;;;;;;;;6.30;99.90;;;;;;5052885;28;19920;-70
2021/01/23 08:59:20;;;;;;;;;;;6.30;99.90;;;;;;5049576;28;19928;-69
2021/01/23 09:02:24;;;;;;;;;;;6.30;99.90;;;;;;5053586;28;19920;-69
2021/01/23 09:05:27;;;;;;;;;;;6.40;99.90;;;;;;5048039;28;20386;-70
2021/01/23 09:08:32;;;;;;;;;;;6.40;99.90;;;;;;5046560;28;19923;-69
2021/01/23 09:11:37;;;;;;;;;;;6.40;99.90;;;;;;5048971;28;19924;-69
2021/01/23 09:14:41;;;;;;;;;;;6.50;99.90;;;;;;5049555;28;19924;-69
2021/01/23 09:17:46;;;;;;;;;;;6.60;99.90;;;;;;5051726;28;19935;-70
2021/01/23 09:20:50;;;;;;;;;;;6.60;99.90;;;;;;5051688;28;19936;-69
2021/01/23 09:23:54;;;;;;;;;;;6.60;99.90;;;;;;5051473;28;19920;-69
2021/01/23 09:26:59;;;;;;;;;;;6.60;99.90;;;;;;5050898;28;20210;-70
2021/01/23 09:30:03;;;;;;;;;;;6.70;99.90;;;;;;5049792;28;19924;-69
2021/01/23 09:33:07;;;;;;;;;;;6.80;99.90;;;;;;5049454;28;19924;-69
2021/01/23 09:36:11;;;;;;;;;;;6.90;99.90;;;;;;5048488;28;19936;-70
2021/01/23 09:39:15;;;;;;;;;;;7.00;99.90;;;;;;5044308;28;19928;-69
2021/01/23 09:42:20;;;;;;;;;;;7.00;99.90;;;;;;5043918;28;20280;-70
2021/01/23 09:45:24;;;;;;;;;;;6.90;99.90;;;;;;5045917;28;19996;-70
2021/01/23 09:48:28;;;;;;;;;;;7.00;99.90;;;;;;5048360;28;19920;-69
2021/01/23 09:51:33;;;;;;;;;;;7.00;99.90;;;;;;5048576;28;19927;-69
2021/01/23 09:54:37;;;;;;;;;;;7.00;99.90;;;;;;5049198;28;19920;-70
2021/01/23 09:57:42;;;;;;;;;;;7.00;99.90;;;;;;5046592;28;20287;-69
2021/01/23 10:00:47;;;;;;;;;;;7.10;99.90;;;;;;5048036;28;19920;-70
2021/01/23 10:03:51;;;;;;;;;;;7.20;99.90;;;;;;5051177;28;19924;-69
2021/01/23 10:06:55;;;;;;;;;;;7.30;99.90;;;;;;5056490;28;19928;-70
2021/01/23 10:10:00;;;;;;;;;;;7.30;99.90;;;;;;5042656;28;19939;-70
2021/01/23 10:13:04;;;;;;;;;;;7.50;99.90;;;;;;5049853;28;20379;-70
2021/01/23 10:16:08;;;;;;;;;;;7.50;99.90;;;;;;5050665;28;19923;-70
2021/01/23 10:19:13;;;;;;;;;;;7.50;99.90;;;;;;5041905;28;19940;-70
2021/01/23 10:22:19;;;;;;;;;;;7.60;99.90;;;;;;5035811;28;19923;-69
2021/01/23 10:25:28;;;;;;;;;;;7.60;99.90;;;;;;5008129;28;19943;-70
2021/01/23 10:28:34;;;;;;;;;;;7.60;99.90;;;;;;5011275;28;19928;-67
2021/01/23 10:31:39;;;;;;;;;;;7.70;99.90;;;;;;5025115;28;19928;-68
2021/01/23 10:34:44;;;;;;;;;;;8.10;99.90;;;;;;5027447;28;19924;-69
2021/01/23 10:37:48;;;;;;;;;;;8.10;99.90;;;;;;5031952;28;19921;-69
2021/01/23 10:40:54;;;;;;;;;;;8.20;99.90;;;;;;5035024;28;20437;-70
2021/01/23 10:43:59;;;;;;;;;;;8.20;99.90;;;;;;5028581;28;19920;-69
2021/01/23 10:47:04;;;;;;;;;;;8.20;99.90;;;;;;5031211;28;19932;-68
2021/01/23 10:50:09;;;;;;;;;;;8.10;99.90;;;;;;5032984;28;20394;-68
2021/01/23 10:53:13;;;;;;;;;;;8.30;99.90;;;;;;5031272;28;19929;-68
2021/01/23 10:56:18;;;;;;;;;;;8.30;99.90;;;;;;5030532;28;19932;-68
2021/01/23 10:59:22;;;;;;;;;;;8.70;99.90;;;;;;5033965;28;19924;-69
2021/01/23 11:02:29;;;;;;;;;;;8.60;99.90;;;;;;5032460;28;19928;-68
2021/01/23 11:05:33;;;;;;;;;;;8.70;99.90;;;;;;5030951;28;20347;-68
2021/01/23 11:08:37;;;;;;;;;;;8.50;99.90;;;;;;5030825;28;19928;-68
2021/01/23 11:11:41;;;;;;;;;;;8.40;99.90;;;;;;5030828;28;20279;-69
2021/01/23 11:14:47;;;;;;;;;;;8.20;99.90;;;;;;5028579;28;19920;-68
2021/01/23 11:17:51;;;;;;;;;;;8.10;99.90;;;;;;5040193;28;19924;-68
2021/01/23 11:20:55;;;;;;;;;;;8.30;99.90;;;;;;5047453;28;20280;-69
2021/01/23 11:23:59;;;;;;;;;;;8.40;99.90;;;;;;5048160;28;19998;-68
2021/01/23 11:27:03;;;;;;;;;;;8.40;99.90;;;;;;5049357;28;19920;-68
2021/01/23 11:30:09;;;;;;;;;;;8.40;99.90;;;;;;5037628;28;20399;-68
2021/01/23 11:33:13;;;;;;;;;;;8.50;99.90;;;;;;5048703;28;19920;-68
2021/01/23 11:36:18;;;;;;;;;;;8.50;99.90;;;;;;5045497;28;19947;-68
2021/01/23 11:39:22;;;;;;;;;;;8.30;99.90;;;;;;5040460;28;19939;-69
2021/01/23 11:42:27;;;;;;;;;;;8.10;99.90;;;;;;5038004;28;19920;-69
2021/01/23 11:45:30;;;;;;;;;;;7.90;99.90;;;;;;5047921;28;20283;-67
2021/01/23 13:01:58;;;;;;;;;;;7.40;99.90;;;;;;5043392;28;19928;-69
2021/01/23 13:05:04;;;;;;;;;;;7.40;99.90;;;;;;5049716;28;19920;-69
2021/01/23 13:08:07;;;;;;;;;;;7.40;99.90;;;;;;5050078;28;19920;-69
2021/01/23 13:11:11;;;;;;;;;;;7.30;99.90;;;;;;5048610;28;19924;-68
2021/01/23 13:14:16;;;;;;;;;;;7.30;99.90;;;;;;5049864;28;19959;-69
2021/01/23 13:17:20;;;;;;;;;;;7.30;99.90;;;;;;5044608;28;19920;-68
2021/01/23 13:20:24;;;;;;;;;;;7.40;99.90;;;;;;5045947;28;20402;-69
2021/01/23 13:23:28;;;;;;;;;;;7.40;99.90;;;;;;5047444;28;20402;-68
2021/01/23 13:26:33;;;;;;;;;;;7.40;99.90;;;;;;5046008;28;20279;-68
2021/01/23 13:29:38;;;;;;;;;;;7.40;99.90;;;;;;5049561;28;19920;-70
2021/01/23 13:32:43;;;;;;;;;;;7.50;99.90;;;;;;5049131;28;19928;-68
2021/01/23 13:35:47;;;;;;;;;;;7.50;99.90;;;;;;5051584;28;20260;-69
2021/01/23 13:38:52;;;;;;;;;;;7.50;99.90;;;;;;5043249;28;19944;-69
2021/01/23 13:41:58;;;;;;;;;;;7.50;99.90;;;;;;5051843;28;19963;-69
2021/01/23 13:45:08;;;;;;;;;;;7.60;99.90;;;;;;5047518;28;19920;-68
2021/01/23 13:48:13;;;;;;;;;;;7.70;99.90;;;;;;5049479;28;20566;-69
2021/01/23 13:51:19;;;;;;;;;;;7.70;99.90;;;;;;5043996;28;19916;-69
2021/01/23 13:54:23;;;;;;;;;;;7.80;99.90;;;;;;5045365;28;19923;-69
2021/01/23 13:57:28;;;;;;;;;;;8.00;99.90;;;;;;5052075;28;19920;-68
2021/01/23 14:00:33;;;;;;;;;;;8.10;99.90;;;;;;5037508;28;19940;-68
2021/01/23 14:03:40;;;;;;;;;;;8.20;99.90;;;;;;5028230;28;19936;-68
2021/01/23 14:06:47;;;;;;;;;;;8.30;99.90;;;;;;5049356;28;19920;-69
2021/01/23 14:09:51;;;;;;;;;;;8.50;99.90;;;;;;5049028;28;19920;-69
2021/01/23 14:12:55;;;;;;;;;;;8.40;99.90;;;;;;5048915;28;19935;-68
2021/01/23 14:16:00;;;;;;;;;;;8.40;99.90;;;;;;5047677;28;19923;-69
2021/01/23 14:19:03;;;;;;;;;;;8.40;99.90;;;;;;5050921;28;19924;-68
2021/01/23 14:22:08;;;;;;;;;;;8.50;99.90;;;;;;5047580;28;19923;-69
2021/01/23 14:25:14;;;;;;;;;;;8.50;99.90;;;;;;5044727;28;20319;-69
2021/01/23 14:28:18;;;;;;;;;;;8.60;99.90;;;;;;5047039;28;19924;-69
2021/01/23 14:31:22;;;;;;;;;;;8.80;99.90;;;;;;5042532;28;19924;-69
2021/01/23 18:04:32;;;;;;;;;;;8.00;99.90;;;;;;5051165;28;19948;-69
2021/01/23 18:07:35;;;;;;;;;;;7.70;99.90;;;;;;5053302;28;19928;-69
2021/01/23 18:10:39;;;;;;;;;;;7.60;99.90;;;;;;5052471;28;19924;-69
2021/01/23 18:13:43;;;;;;;;;;;7.40;99.90;;;;;;5041731;28;19920;-70
2021/01/23 18:16:47;;;;;;;;;;;7.40;99.90;;;;;;5053348;28;19931;-70
2021/01/23 18:19:52;;;;;;;;;;;7.40;99.90;;;;;;5051194;28;19928;-69
2021/01/23 18:22:56;;;;;;;;;;;7.40;99.90;;;;;;5052899;28;20458;-69
2021/01/23 18:26:00;;;;;;;;;;;7.30;99.90;;;;;;5053480;28;20264;-69
2021/01/23 18:29:06;;;;;;;;;;;7.20;99.90;;;;;;5052375;28;19923;-69
2021/01/23 18:35:53;;;;;;;;;;;7.10;99.90;;;;;;5043796;28;19923;-69
2021/01/23 18:38:57;;;;;;;;;;;7.10;99.90;;;;;;5051758;28;19919;-69
2021/01/23 18:42:01;;;;;;;;;;;7.10;99.90;;;;;;5051463;28;20276;-69
2021/01/23 18:45:37;;;;;;;;;;;7.10;99.90;;;;;;5051779;28;19935;-69
2021/01/23 19:16:15;;;;;;;;;;;7.30;99.90;;;;;;5053171;28;19940;-69
2021/01/23 19:19:20;;;;;;;;;;;7.30;99.90;;;;;;5050382;28;19923;-70
2021/01/23 19:22:24;;;;;;;;;;;7.30;99.90;;;;;;5051530;28;19939;-69
2021/01/23 19:25:28;;;;;;;;;;;7.30;99.90;;;;;;5051956;28;19920;-69
2021/01/23 19:28:32;;;;;;;;;;;7.30;99.90;;;;;;5051663;28;19920;-69
2021/01/23 19:31:36;;;;;;;;;;;7.30;99.90;;;;;;5049959;28;19924;-69
2021/01/23 19:34:40;;;;;;;;;;;7.30;99.90;;;;;;5051553;28;19955;-68
2021/01/23 19:37:44;;;;;;;;;;;7.40;99.90;;;;;;5051343;28;19920;-69
2021/01/23 19:40:48;;;;;;;;;;;7.40;99.90;;;;;;5050260;28;19927;-69
2021/01/23 19:43:52;;;;;;;;;;;7.40;99.90;;;;;;5050610;28;19940;-69
2021/01/23 19:47:00;;;;;;;;;;;7.40;99.90;;;;;;5046671;28;19928;-69
2021/01/23 19:50:04;;;;;;;;;;;7.40;99.90;;;;;;5045204;28;19924;-69
2021/01/23 19:53:10;;;;;;;;;;;7.50;99.90;;;;;;5049398;28;19924;-69
2021/01/23 19:56:18;;;;;;;;;;;7.40;99.90;;;;;;5045992;28;21372;-68
2021/01/23 19:59:24;;;;;;;;;;;7.50;99.90;;;;;;5045228;28;20003;-68
2021/01/23 20:02:28;;;;;;;;;;;7.50;99.90;;;;;;5047492;28;19924;-69
2021/01/23 20:05:33;;;;;;;;;;;7.60;99.90;;;;;;5047880;28;19920;-68
2021/01/23 20:08:37;;;;;;;;;;;7.50;99.90;;;;;;5042146;28;19920;-70
2021/01/23 20:11:42;;;;;;;;;;;7.50;99.90;;;;;;5047752;28;20395;-69
2021/01/23 20:14:46;;;;;;;;;;;7.50;99.90;;;;;;5049430;28;19939;-69
2021/01/23 20:17:52;;;;;;;;;;;7.50;99.90;;;;;;5050270;28;19924;-69
2021/01/23 20:20:58;;;;;;;;;;;7.50;99.90;;;;;;5043280;28;19927;-70
2021/01/23 20:24:03;;;;;;;;;;;7.60;99.90;;;;;;5041570;28;19924;-70
2021/01/23 20:27:07;;;;;;;;;;;7.70;99.90;;;;;;5048518;28;19936;-69
2021/01/23 20:30:13;;;;;;;;;;;7.60;99.90;;;;;;5047406;28;20379;-69
2021/01/23 20:33:17;;;;;;;;;;;7.60;99.90;;;;;;5046181;28;19920;-69
2021/01/23 20:36:22;;;;;;;;;;;7.70;99.90;;;;;;5037552;28;19927;-69
2021/01/23 20:39:27;;;;;;;;;;;7.70;99.90;;;;;;5052935;28;19962;-69
2021/01/23 20:42:31;;;;;;;;;;;7.60;99.90;;;;;;5049656;28;19924;-69
2021/01/23 20:45:37;;;;;;;;;;;7.60;99.90;;;;;;5048866;28;19920;-68
2021/01/23 20:48:41;;;;;;;;;;;7.60;99.90;;;;;;5051366;28;19924;-69
2021/01/23 20:51:45;;;;;;;;;;;7.70;99.90;;;;;;5051613;28;19924;-68
2021/01/23 20:54:49;;;;;;;;;;;7.70;99.90;;;;;;5045930;28;19920;-68
2021/01/23 20:57:53;;;;;;;;;;;7.70;99.90;;;;;;5042354;28;19924;-68
2021/01/23 21:00:58;;;;;;;;;;;7.70;99.90;;;;;;5048075;28;19932;-68
2021/01/23 21:04:02;;;;;;;;;;;7.70;99.90;;;;;;5053054;28;19920;-68
2021/01/23 21:07:07;;;;;;;;;;;7.70;99.90;;;;;;5053390;28;19924;-68
2021/01/23 21:10:13;;;;;;;;;;;7.80;99.90;;;;;;5053029;28;19920;-69
2021/01/23 21:13:17;;;;;;;;;;;7.80;99.90;;;;;;5042794;28;20248;-69
2021/01/23 21:16:21;;;;;;;;;;;7.70;99.90;;;;;;5040847;28;19944;-68
2021/01/23 21:19:26;;;;;;;;;;;7.70;99.90;;;;;;5052309;28;19928;-68
2021/01/23 21:22:30;;;;;;;;;;;7.70;99.90;;;;;;5052974;28;19924;-68
2021/01/23 21:25:34;;;;;;;;;;;7.80;99.90;;;;;;5053802;28;19920;-68
2021/01/23 21:28:38;;;;;;;;;;;7.90;99.90;;;;;;5053368;28;19920;-69
2021/01/23 21:31:42;;;;;;;;;;;7.90;99.90;;;;;;5040433;28;19923;-69
2021/01/23 21:34:46;;;;;;;;;;;8.00;99.90;;;;;;5052369;28;19924;-68
2021/01/23 21:37:51;;;;;;;;;;;8.00;99.90;;;;;;5052605;28;20303;-69
2021/01/23 21:40:55;;;;;;;;;;;8.00;99.90;;;;;;5051914;28;19924;-68
2021/01/23 21:44:00;;;;;;;;;;;8.00;99.90;;;;;;5050955;28;19919;-69
2021/01/23 21:47:03;;;;;;;;;;;8.00;99.90;;;;;;5051215;28;19924;-69
2021/01/23 21:50:08;;;;;;;;;;;7.90;99.90;;;;;;5046576;28;20355;-68
2021/01/23 21:53:12;;;;;;;;;;;7.80;99.90;;;;;;5051987;28;19983;-68
2021/01/23 21:56:16;;;;;;;;;;;8.00;99.90;;;;;;5051453;28;19936;-68
2021/01/23 21:59:20;;;;;;;;;;;8.20;99.90;;;;;;5043038;28;19928;-68
2021/01/23 22:02:25;;;;;;;;;;;8.20;99.90;;;;;;5050119;28;20351;-68
2021/01/23 22:05:29;;;;;;;;;;;8.10;99.90;;;;;;5048319;28;19924;-69
2021/01/23 22:08:33;;;;;;;;;;;8.30;99.90;;;;;;5050657;28;19924;-67
2021/01/23 22:11:37;;;;;;;;;;;8.50;99.90;;;;;;5046150;28;20371;-68
2021/01/23 22:14:42;;;;;;;;;;;8.40;99.90;;;;;;5049991;28;20256;-67
2021/01/23 22:17:46;;;;;;;;;;;8.30;99.90;;;;;;5047018;28;19924;-68
2021/01/23 22:20:50;;;;;;;;;;;8.30;99.90;;;;;;5049186;28;19924;-68
2021/01/23 22:23:54;;;;;;;;;;;8.40;99.90;;;;;;5047381;28;19932;-68
2021/01/23 22:26:58;;;;;;;;;;;8.40;99.90;;;;;;5045308;28;19924;-68
2021/01/23 22:30:04;;;;;;;;;;;8.30;99.90;;;;;;5048956;28;19936;-68
2021/01/23 22:33:09;;;;;;;;;;;8.20;99.90;;;;;;5048049;28;19928;-69
2021/01/23 22:36:13;;;;;;;;;;;8.40;99.90;;;;;;5049935;28;19920;-69
2021/01/23 22:39:18;;;;;;;;;;;8.50;99.90;;;;;;5049450;28;19940;-68
2021/01/23 22:42:24;;;;;;;;;;;8.50;99.90;;;;;;5052337;28;19920;-68
2021/01/23 22:45:29;;;;;;;;;;;8.40;99.90;;;;;;5052223;28;19924;-69
2021/01/23 22:48:33;;;;;;;;;;;8.40;99.90;;;;;;5051833;28;19992;-68
2021/01/23 22:51:37;;;;;;;;;;;8.80;99.90;;;;;;5050211;28;19935;-68
2021/01/23 22:54:41;;;;;;;;;;;9.00;99.90;;;;;;5051321;28;20307;-69
2021/01/23 22:57:45;;;;;;;;;;;9.00;99.90;;;;;;5051586;28;19982;-69
2021/01/23 23:00:51;;;;;;;;;;;9.20;99.90;;;;;;5051120;28;19924;-69
2021/01/23 23:03:54;;;;;;;;;;;9.30;99.90;;;;;;5047646;28;19919;-68
2021/01/23 23:06:58;;;;;;;;;;;9.40;99.90;;;;;;5046584;28;19920;-68
2021/01/23 23:10:03;;;;;;;;;;;9.40;99.90;;;;;;5037256;28;19943;-68
2021/01/23 23:13:08;;;;;;;;;;;9.40;99.90;;;;;;5051201;28;19924;-68
2021/01/23 23:16:12;;;;;;;;;;;9.30;99.90;;;;;;5051754;28;19923;-68
2021/01/23 23:19:16;;;;;;;;;;;9.20;99.90;;;;;;5051834;28;19940;-69
2021/01/23 23:22:20;;;;;;;;;;;9.20;99.90;;;;;;5051752;28;19924;-69
2021/01/23 23:25:24;;;;;;;;;;;9.70;99.90;;;;;;5037830;28;20394;-68
2021/01/23 23:28:28;;;;;;;;;;;9.70;99.90;;;;;;5051167;28;19920;-68